Terminal Aerodrome Forecast
Issued by NWS

Home | Current Version | Previous Version | Text Only | Print | Product List | Glossary On
Versions: 1 2 3 4 5 6 7 8 9 10 11 12 13 14 15 16 17 18 19 20
000
FTUS46 KMTR 220803 AAA
TAFSTS
TAF AMD
KSTS 220803Z 2208/2306 17003KT 4SM -RA BR BKN007 OVC012
      TEMPO 2208/2210 1SM RA BR
     FM221200 00000KT 1/2SM FG OVC005
      TEMPO 2212/2216 1SM -RA BR OVC010
     FM221800 27005KT 5SM BR OVC015
     FM230300 VRB03KT P6SM SCT025 BKN080=

USA.gov is the U.S. government's official web portal to all federal, state and local government web resources and services.